Terminal Aerodrome Forecast
Issued by NWS

Home | Current Version | Previous Version | Graphics & Text | Print | Product List | Glossary On
Versions: 1 2 3 4 5 6 7 8 9 10 11 12 13 14 15 16 17 18
000
FTUS43 KGRB 261100
TAFAUW
TAF
KAUW 261129Z 2612/2712 30011G19KT P6SM OVC027
     FM261600 32012G18KT P6SM BKN035
     FM270100 35007KT P6SM SCT035=

USA.gov is the U.S. government's official web portal to all federal, state and local government web resources and services.